Terminal Aerodrome Forecast
Issued by NWS

Home | Current Version | Previous Version | Text Only | Print | Product List | Glossary On
Versions: 1 2 3 4 5 6 7 8 9 10 11 12 13 14 15 16 17
000
FTUS46 KSEW 271100
TAFBFI
TAF
KBFI 271129Z 2712/2812 14005KT P6SM OVC020
      TEMPO 2715/2719 BKN012 OVC020
     FM272000 17005KT P6SM OVC025
     FM280300 15003KT P6SM OVC018=

USA.gov is the U.S. government's official web portal to all federal, state and local government web resources and services.